Naples, Maine
Current Conditions -  °F | °C
As of 6:54 PM on Saturday 22 Nov 2014 (Local Time) from KIZG Reporting Station
Broken Clouds Broken Clouds  
Wind Chill: 29°   Ceiling: 10000
Heat Index: 35°   Visibility: 10mi
Dew Point: 10°   Wind: 8mph
Humidity: 35%   Direction: 180°S
Pressure: 29.96"   Gusts: NA
Location:  43.97°N, 70.61°W
Report Text: KIZG 222354Z AUTO 18007KT 10SM BKN100 02/M12 A2996 RMK AO2 SLP152 T00171122 10028 20000 56024
Loading
Personal Weather Stations






























Interactive Weather Map New forecast layout! Learn more

10-Day Weather Forecast

Advertisements
Track Severe Weather on mobile